sensor_id;sensor_type;location;lat;lon;timestamp;temperature;humidity
16347;DHT22;8283;48.504;13.734;2022-12-18T00:02:23;1.70;63.30
16347;DHT22;8283;48.504;13.734;2022-12-18T00:05:07;1.20;63.20
16347;DHT22;8283;48.504;13.734;2022-12-18T00:07:52;1.10;63.20
16347;DHT22;8283;48.504;13.734;2022-12-18T00:10:36;1.10;63.40
16347;DHT22;8283;48.504;13.734;2022-12-18T00:13:20;1.10;63.50
16347;DHT22;8283;48.504;13.734;2022-12-18T00:16:07;1.10;63.70
16347;DHT22;8283;48.504;13.734;2022-12-18T00:18:54;1.10;63.80
16347;DHT22;8283;48.504;13.734;2022-12-18T00:21:38;1.10;63.90
16347;DHT22;8283;48.504;13.734;2022-12-18T00:24:23;1.10;63.90
16347;DHT22;8283;48.504;13.734;2022-12-18T00:27:07;1.10;64.00
16347;DHT22;8283;48.504;13.734;2022-12-18T00:29:52;1.10;64.00
16347;DHT22;8283;48.504;13.734;2022-12-18T00:32:36;1.10;64.00
16347;DHT22;8283;48.504;13.734;2022-12-18T00:35:21;1.10;64.00
16347;DHT22;8283;48.504;13.734;2022-12-18T00:38:06;1.10;64.10
16347;DHT22;8283;48.504;13.734;2022-12-18T00:40:50;1.10;64.20
16347;DHT22;8283;48.504;13.734;2022-12-18T00:43:35;1.10;64.30
16347;DHT22;8283;48.504;13.734;2022-12-18T00:46:20;1.10;64.30
16347;DHT22;8283;48.504;13.734;2022-12-18T00:49:06;1.20;64.50
16347;DHT22;8283;48.504;13.734;2022-12-18T00:51:51;1.20;64.50
16347;DHT22;8283;48.504;13.734;2022-12-18T00:54:36;1.20;64.60
16347;DHT22;8283;48.504;13.734;2022-12-18T00:57:20;1.20;64.60
16347;DHT22;8283;48.504;13.734;2022-12-18T01:00:07;1.20;64.60
16347;DHT22;8283;48.504;13.734;2022-12-18T01:02:53;1.20;64.60
16347;DHT22;8283;48.504;13.734;2022-12-18T01:05:40;1.20;64.60
16347;DHT22;8283;48.504;13.734;2022-12-18T01:08:25;1.30;64.70
16347;DHT22;8283;48.504;13.734;2022-12-18T01:11:12;1.30;64.70
16347;DHT22;8283;48.504;13.734;2022-12-18T01:13:56;1.30;64.80
16347;DHT22;8283;48.504;13.734;2022-12-18T01:16:43;1.30;64.90
16347;DHT22;8283;48.504;13.734;2022-12-18T01:19:28;1.30;64.90
16347;DHT22;8283;48.504;13.734;2022-12-18T01:22:12;1.40;64.90
16347;DHT22;8283;48.504;13.734;2022-12-18T01:24:56;1.30;64.80
16347;DHT22;8283;48.504;13.734;2022-12-18T01:27:41;1.30;64.90
16347;DHT22;8283;48.504;13.734;2022-12-18T01:30:25;1.40;64.90
16347;DHT22;8283;48.504;13.734;2022-12-18T01:33:10;1.40;65.00
16347;DHT22;8283;48.504;13.734;2022-12-18T01:35:54;1.40;65.00
16347;DHT22;8283;48.504;13.734;2022-12-18T01:38:39;1.40;65.00
16347;DHT22;8283;48.504;13.734;2022-12-18T01:41:26;1.40;65.00
16347;DHT22;8283;48.504;13.734;2022-12-18T01:48:03;1.40;65.00
16347;DHT22;8283;48.504;13.734;2022-12-18T01:50:50;1.40;65.70
16347;DHT22;8283;48.504;13.734;2022-12-18T01:53:34;1.40;64.80
16347;DHT22;8283;48.504;13.734;2022-12-18T01:56:20;1.40;64.80
16347;DHT22;8283;48.504;13.734;2022-12-18T01:59:08;1.40;64.80
16347;DHT22;8283;48.504;13.734;2022-12-18T02:01:54;1.30;64.70
16347;DHT22;8283;48.504;13.734;2022-12-18T02:04:39;1.40;64.80
16347;DHT22;8283;48.504;13.734;2022-12-18T02:07:39;1.40;64.80
16347;DHT22;8283;48.504;13.734;2022-12-18T02:17:06;1.40;65.00
16347;DHT22;8283;48.504;13.734;2022-12-18T02:28:52;1.30;65.00
16347;DHT22;8283;48.504;13.734;2022-12-18T02:31:51;1.30;64.90
16347;DHT22;8283;48.504;13.734;2022-12-18T02:34:38;1.30;65.00
16347;DHT22;8283;48.504;13.734;2022-12-18T02:37:26;1.30;64.90
16347;DHT22;8283;48.504;13.734;2022-12-18T02:40:12;1.30;64.90
16347;DHT22;8283;48.504;13.734;2022-12-18T02:43:24;1.30;65.00
16347;DHT22;8283;48.504;13.734;2022-12-18T02:49:30;1.40;65.10
16347;DHT22;8283;48.504;13.734;2022-12-18T02:52:44;1.40;65.00
16347;DHT22;8283;48.504;13.734;2022-12-18T02:55:50;1.40;65.10
16347;DHT22;8283;48.504;13.734;2022-12-18T03:02:02;1.40;65.20
16347;DHT22;8283;48.504;13.734;2022-12-18T03:05:16;1.40;65.10
16347;DHT22;8283;48.504;13.734;2022-12-18T03:08:08;1.40;65.20
16347;DHT22;8283;48.504;13.734;2022-12-18T03:11:03;1.40;65.20
16347;DHT22;8283;48.504;13.734;2022-12-18T03:13:55;1.40;65.20
16347;DHT22;8283;48.504;13.734;2022-12-18T03:16:43;1.40;65.20
16347;DHT22;8283;48.504;13.734;2022-12-18T03:19:32;1.40;65.20
16347;DHT22;8283;48.504;13.734;2022-12-18T03:22:20;1.40;65.30
16347;DHT22;8283;48.504;13.734;2022-12-18T03:25:11;1.50;65.40
16347;DHT22;8283;48.504;13.734;2022-12-18T03:27:59;1.50;65.40
16347;DHT22;8283;48.504;13.734;2022-12-18T03:30:46;1.50;65.40
16347;DHT22;8283;48.504;13.734;2022-12-18T03:33:44;1.50;65.40
16347;DHT22;8283;48.504;13.734;2022-12-18T03:36:30;1.60;65.60
16347;DHT22;8283;48.504;13.734;2022-12-18T03:39:15;1.60;65.50
16347;DHT22;8283;48.504;13.734;2022-12-18T03:42:21;1.60;65.50
16347;DHT22;8283;48.504;13.734;2022-12-18T03:48:06;1.60;65.40
16347;DHT22;8283;48.504;13.734;2022-12-18T03:50:59;1.60;65.30
16347;DHT22;8283;48.504;13.734;2022-12-18T03:53:56;1.60;65.20
16347;DHT22;8283;48.504;13.734;2022-12-18T03:56:49;1.60;65.20
16347;DHT22;8283;48.504;13.734;2022-12-18T03:59:39;1.60;65.10
16347;DHT22;8283;48.504;13.734;2022-12-18T04:02:24;1.60;65.00
16347;DHT22;8283;48.504;13.734;2022-12-18T04:05:10;1.60;64.90
16347;DHT22;8283;48.504;13.734;2022-12-18T04:07:58;1.60;65.00
16347;DHT22;8283;48.504;13.734;2022-12-18T04:10:43;1.60;64.90
16347;DHT22;8283;48.504;13.734;2022-12-18T04:13:30;1.50;64.80
16347;DHT22;8283;48.504;13.734;2022-12-18T04:16:17;1.50;64.80
16347;DHT22;8283;48.504;13.734;2022-12-18T04:19:04;1.50;64.90
16347;DHT22;8283;48.504;13.734;2022-12-18T04:21:54;1.50;64.90
16347;DHT22;8283;48.504;13.734;2022-12-18T04:24:38;1.50;64.90
16347;DHT22;8283;48.504;13.734;2022-12-18T04:27:30;1.50;64.80
16347;DHT22;8283;48.504;13.734;2022-12-18T04:30:15;1.50;64.90
16347;DHT22;8283;48.504;13.734;2022-12-18T04:33:00;1.50;64.70
16347;DHT22;8283;48.504;13.734;2022-12-18T04:35:45;1.50;64.60
16347;DHT22;8283;48.504;13.734;2022-12-18T04:38:31;1.50;64.60
16347;DHT22;8283;48.504;13.734;2022-12-18T04:41:22;1.50;64.60
16347;DHT22;8283;48.504;13.734;2022-12-18T04:44:10;1.50;64.70
16347;DHT22;8283;48.504;13.734;2022-12-18T04:46:54;1.40;65.30
16347;DHT22;8283;48.504;13.734;2022-12-18T04:49:39;1.40;64.50
16347;DHT22;8283;48.504;13.734;2022-12-18T04:52:24;1.40;64.50
16347;DHT22;8283;48.504;13.734;2022-12-18T04:55:09;1.40;64.50
16347;DHT22;8283;48.504;13.734;2022-12-18T04:57:53;1.30;64.40
16347;DHT22;8283;48.504;13.734;2022-12-18T05:00:37;1.30;64.40
16347;DHT22;8283;48.504;13.734;2022-12-18T05:03:21;1.30;64.50
16347;DHT22;8283;48.504;13.734;2022-12-18T05:06:07;1.30;64.40
16347;DHT22;8283;48.504;13.734;2022-12-18T05:08:51;1.30;64.40
16347;DHT22;8283;48.504;13.734;2022-12-18T05:11:35;1.30;64.40
16347;DHT22;8283;48.504;13.734;2022-12-18T05:14:20;1.30;64.40
16347;DHT22;8283;48.504;13.734;2022-12-18T05:17:05;1.20;64.30
16347;DHT22;8283;48.504;13.734;2022-12-18T05:19:49;1.20;64.20
16347;DHT22;8283;48.504;13.734;2022-12-18T05:22:33;1.20;64.20
16347;DHT22;8283;48.504;13.734;2022-12-18T05:25:19;1.20;64.20
16347;DHT22;8283;48.504;13.734;2022-12-18T05:28:03;1.20;64.10
16347;DHT22;8283;48.504;13.734;2022-12-18T05:30:54;1.10;64.10
16347;DHT22;8283;48.504;13.734;2022-12-18T05:33:38;1.10;64.10
16347;DHT22;8283;48.504;13.734;2022-12-18T05:36:23;1.10;64.00
16347;DHT22;8283;48.504;13.734;2022-12-18T05:39:07;1.10;63.90
16347;DHT22;8283;48.504;13.734;2022-12-18T05:41:52;1.00;63.90
16347;DHT22;8283;48.504;13.734;2022-12-18T05:44:36;1.00;64.50
16347;DHT22;8283;48.504;13.734;2022-12-18T05:47:20;0.90;63.80
16347;DHT22;8283;48.504;13.734;2022-12-18T05:50:05;0.90;63.70
16347;DHT22;8283;48.504;13.734;2022-12-18T05:52:51;0.80;63.70
16347;DHT22;8283;48.504;13.734;2022-12-18T05:55:37;0.80;63.70
16347;DHT22;8283;48.504;13.734;2022-12-18T05:58:21;0.70;63.70
16347;DHT22;8283;48.504;13.734;2022-12-18T06:03:55;0.60;63.50
16347;DHT22;8283;48.504;13.734;2022-12-18T06:06:40;0.60;63.40
16347;DHT22;8283;48.504;13.734;2022-12-18T06:09:24;0.50;63.40
16347;DHT22;8283;48.504;13.734;2022-12-18T06:12:08;0.50;63.40
16347;DHT22;8283;48.504;13.734;2022-12-18T06:14:53;0.40;63.40
16347;DHT22;8283;48.504;13.734;2022-12-18T06:17:38;0.40;63.30
16347;DHT22;8283;48.504;13.734;2022-12-18T06:20:22;0.30;63.20
16347;DHT22;8283;48.504;13.734;2022-12-18T06:23:06;0.30;63.20
16347;DHT22;8283;48.504;13.734;2022-12-18T06:25:51;0.20;63.10
16347;DHT22;8283;48.504;13.734;2022-12-18T06:28:35;0.20;63.20
16347;DHT22;8283;48.504;13.734;2022-12-18T06:31:20;0.10;63.20
16347;DHT22;8283;48.504;13.734;2022-12-18T06:34:04;0.00;63.30
16347;DHT22;8283;48.504;13.734;2022-12-18T06:36:49;0.00;63.30
16347;DHT22;8283;48.504;13.734;2022-12-18T06:39:33;-0.10;63.30
16347;DHT22;8283;48.504;13.734;2022-12-18T06:42:18;-0.10;63.30
16347;DHT22;8283;48.504;13.734;2022-12-18T06:45:02;-0.10;63.30
16347;DHT22;8283;48.504;13.734;2022-12-18T06:47:47;-0.10;63.30
16347;DHT22;8283;48.504;13.734;2022-12-18T06:50:31;-0.10;63.40
16347;DHT22;8283;48.504;13.734;2022-12-18T06:53:16;-0.20;63.30
16347;DHT22;8283;48.504;13.734;2022-12-18T06:56:05;-0.20;63.30
16347;DHT22;8283;48.504;13.734;2022-12-18T06:58:50;-0.20;63.20
16347;DHT22;8283;48.504;13.734;2022-12-18T07:01:35;-0.20;63.20
16347;DHT22;8283;48.504;13.734;2022-12-18T07:04:19;-0.30;63.10
16347;DHT22;8283;48.504;13.734;2022-12-18T07:07:03;-0.30;63.20
16347;DHT22;8283;48.504;13.734;2022-12-18T07:09:50;-0.30;63.10
16347;DHT22;8283;48.504;13.734;2022-12-18T07:12:34;-0.40;63.10
16347;DHT22;8283;48.504;13.734;2022-12-18T07:15:19;-0.40;63.00
16347;DHT22;8283;48.504;13.734;2022-12-18T07:18:04;-0.40;63.10
16347;DHT22;8283;48.504;13.734;2022-12-18T07:20:48;-0.40;63.10
16347;DHT22;8283;48.504;13.734;2022-12-18T07:23:34;-0.50;63.00
16347;DHT22;8283;48.504;13.734;2022-12-18T07:26:20;0.40;63.60
16347;DHT22;8283;48.504;13.734;2022-12-18T07:29:05;-0.60;63.00
16347;DHT22;8283;48.504;13.734;2022-12-18T07:31:49;-0.60;63.00
16347;DHT22;8283;48.504;13.734;2022-12-18T07:34:34;-0.70;63.00
16347;DHT22;8283;48.504;13.734;2022-12-18T07:37:18;-0.70;63.10
16347;DHT22;8283;48.504;13.734;2022-12-18T07:40:03;-0.70;63.20
16347;DHT22;8283;48.504;13.734;2022-12-18T07:42:47;-0.80;63.20
16347;DHT22;8283;48.504;13.734;2022-12-18T07:45:31;-0.80;63.20
16347;DHT22;8283;48.504;13.734;2022-12-18T07:48:16;-0.80;63.20
16347;DHT22;8283;48.504;13.734;2022-12-18T07:51:02;-0.80;63.30
16347;DHT22;8283;48.504;13.734;2022-12-18T07:53:47;-0.80;63.30
16347;DHT22;8283;48.504;13.734;2022-12-18T07:56:32;-0.90;63.20
16347;DHT22;8283;48.504;13.734;2022-12-18T07:59:16;-0.90;63.20
16347;DHT22;8283;48.504;13.734;2022-12-18T08:02:00;-0.90;63.30
16347;DHT22;8283;48.504;13.734;2022-12-18T08:04:45;-0.90;63.40
16347;DHT22;8283;48.504;13.734;2022-12-18T08:07:29;-0.90;63.50
16347;DHT22;8283;48.504;13.734;2022-12-18T08:10:13;-0.90;63.50
16347;DHT22;8283;48.504;13.734;2022-12-18T08:12:58;-0.90;63.50
16347;DHT22;8283;48.504;13.734;2022-12-18T08:15:42;-0.90;63.50
16347;DHT22;8283;48.504;13.734;2022-12-18T08:18:26;-0.90;63.60
16347;DHT22;8283;48.504;13.734;2022-12-18T08:21:19;-0.90;63.70
16347;DHT22;8283;48.504;13.734;2022-12-18T08:24:05;-0.90;63.70
16347;DHT22;8283;48.504;13.734;2022-12-18T08:26:50;-0.90;63.70
16347;DHT22;8283;48.504;13.734;2022-12-18T08:29:34;-0.90;63.70
16347;DHT22;8283;48.504;13.734;2022-12-18T08:32:19;-0.80;63.80
16347;DHT22;8283;48.504;13.734;2022-12-18T08:35:03;-0.80;63.80
16347;DHT22;8283;48.504;13.734;2022-12-18T08:37:48;-0.80;63.90
16347;DHT22;8283;48.504;13.734;2022-12-18T08:40:32;-0.80;63.90
16347;DHT22;8283;48.504;13.734;2022-12-18T08:43:17;-0.80;63.90
16347;DHT22;8283;48.504;13.734;2022-12-18T08:46:22;-0.70;64.00
16347;DHT22;8283;48.504;13.734;2022-12-18T08:49:07;-0.70;64.00
16347;DHT22;8283;48.504;13.734;2022-12-18T08:51:54;-0.70;64.00
16347;DHT22;8283;48.504;13.734;2022-12-18T08:54:39;-0.60;64.10
16347;DHT22;8283;48.504;13.734;2022-12-18T08:57:23;-0.60;64.10
16347;DHT22;8283;48.504;13.734;2022-12-18T09:00:08;-0.60;64.10
16347;DHT22;8283;48.504;13.734;2022-12-18T09:02:52;-0.50;64.20
16347;DHT22;8283;48.504;13.734;2022-12-18T09:05:37;-0.50;64.20
16347;DHT22;8283;48.504;13.734;2022-12-18T09:08:21;-0.50;64.30
16347;DHT22;8283;48.504;13.734;2022-12-18T09:11:13;-0.40;64.40
16347;DHT22;8283;48.504;13.734;2022-12-18T09:13:59;-0.40;64.40
16347;DHT22;8283;48.504;13.734;2022-12-18T09:16:44;-0.30;64.50
16347;DHT22;8283;48.504;13.734;2022-12-18T09:19:28;-0.30;64.50
16347;DHT22;8283;48.504;13.734;2022-12-18T09:22:13;-0.20;64.60
16347;DHT22;8283;48.504;13.734;2022-12-18T09:24:57;-0.20;64.60
16347;DHT22;8283;48.504;13.734;2022-12-18T09:27:41;-0.10;64.70
16347;DHT22;8283;48.504;13.734;2022-12-18T09:30:26;-0.10;64.70
16347;DHT22;8283;48.504;13.734;2022-12-18T09:33:10;0.00;64.70
16347;DHT22;8283;48.504;13.734;2022-12-18T09:35:55;0.10;64.80
16347;DHT22;8283;48.504;13.734;2022-12-18T09:38:39;0.20;64.90
16347;DHT22;8283;48.504;13.734;2022-12-18T09:41:47;0.20;64.90
16347;DHT22;8283;48.504;13.734;2022-12-18T09:44:39;0.30;65.00
16347;DHT22;8283;48.504;13.734;2022-12-18T09:47:28;0.40;65.00
16347;DHT22;8283;48.504;13.734;2022-12-18T09:50:28;0.50;65.20
16347;DHT22;8283;48.504;13.734;2022-12-18T09:53:20;0.60;65.20
16347;DHT22;8283;48.504;13.734;2022-12-18T09:56:15;0.80;65.30
16347;DHT22;8283;48.504;13.734;2022-12-18T09:59:01;0.90;65.40
16347;DHT22;8283;48.504;13.734;2022-12-18T10:01:46;1.00;65.50
16347;DHT22;8283;48.504;13.734;2022-12-18T10:04:31;1.20;65.60
16347;DHT22;8283;48.504;13.734;2022-12-18T10:10:41;1.50;65.80
16347;DHT22;8283;48.504;13.734;2022-12-18T10:13:48;1.60;65.80
16347;DHT22;8283;48.504;13.734;2022-12-18T10:17:02;1.80;65.70
16347;DHT22;8283;48.504;13.734;2022-12-18T10:19:58;2.00;65.60
16347;DHT22;8283;48.504;13.734;2022-12-18T10:26:05;2.30;65.60
16347;DHT22;8283;48.504;13.734;2022-12-18T10:28:51;2.50;65.70
16347;DHT22;8283;48.504;13.734;2022-12-18T10:31:37;2.60;65.70
16347;DHT22;8283;48.504;13.734;2022-12-18T10:34:21;2.70;65.60
16347;DHT22;8283;48.504;13.734;2022-12-18T10:37:06;2.80;65.50
16347;DHT22;8283;48.504;13.734;2022-12-18T10:40:14;2.90;65.50
16347;DHT22;8283;48.504;13.734;2022-12-18T10:43:37;3.10;65.30
16347;DHT22;8283;48.504;13.734;2022-12-18T10:46:21;3.20;65.30
16347;DHT22;8283;48.504;13.734;2022-12-18T10:49:19;3.30;65.30
16347;DHT22;8283;48.504;13.734;2022-12-18T10:52:22;3.40;65.40
16347;DHT22;8283;48.504;13.734;2022-12-18T10:55:16;3.50;65.30
16347;DHT22;8283;48.504;13.734;2022-12-18T10:58:22;3.50;65.30
16347;DHT22;8283;48.504;13.734;2022-12-18T11:01:16;3.60;65.00
16347;DHT22;8283;48.504;13.734;2022-12-18T11:04:08;3.70;65.10
16347;DHT22;8283;48.504;13.734;2022-12-18T11:06:58;3.80;65.10
16347;DHT22;8283;48.504;13.734;2022-12-18T11:09:43;3.80;65.10
16347;DHT22;8283;48.504;13.734;2022-12-18T11:12:43;3.90;65.10
16347;DHT22;8283;48.504;13.734;2022-12-18T11:15:29;4.00;65.20
16347;DHT22;8283;48.504;13.734;2022-12-18T11:18:28;4.00;65.00
16347;DHT22;8283;48.504;13.734;2022-12-18T11:21:13;4.10;64.90
16347;DHT22;8283;48.504;13.734;2022-12-18T11:23:58;4.10;64.90
16347;DHT22;8283;48.504;13.734;2022-12-18T11:26:43;4.10;64.90
16347;DHT22;8283;48.504;13.734;2022-12-18T11:29:39;4.20;65.00
16347;DHT22;8283;48.504;13.734;2022-12-18T11:32:26;4.30;64.70
16347;DHT22;8283;48.504;13.734;2022-12-18T11:35:21;4.30;65.00
16347;DHT22;8283;48.504;13.734;2022-12-18T11:38:24;4.40;64.80
16347;DHT22;8283;48.504;13.734;2022-12-18T11:41:32;4.40;64.70
16347;DHT22;8283;48.504;13.734;2022-12-18T11:47:39;4.50;64.70
16347;DHT22;8283;48.504;13.734;2022-12-18T11:50:32;4.50;64.70
16347;DHT22;8283;48.504;13.734;2022-12-18T11:53:18;4.50;64.70
16347;DHT22;8283;48.504;13.734;2022-12-18T11:59:23;4.60;64.70
16347;DHT22;8283;48.504;13.734;2022-12-18T12:14:49;4.60;64.30
16347;DHT22;8283;48.504;13.734;2022-12-18T12:17:45;4.60;64.30
16347;DHT22;8283;48.504;13.734;2022-12-18T12:21:01;4.60;64.40
16347;DHT22;8283;48.504;13.734;2022-12-18T12:35:54;4.60;64.30
16347;DHT22;8283;48.504;13.734;2022-12-18T12:38:43;4.60;64.50
16347;DHT22;8283;48.504;13.734;2022-12-18T12:41:32;4.60;64.50
16347;DHT22;8283;48.504;13.734;2022-12-18T12:44:44;4.60;64.50
16347;DHT22;8283;48.504;13.734;2022-12-18T12:47:33;4.70;64.50
16347;DHT22;8283;48.504;13.734;2022-12-18T12:50:20;4.70;64.50
16347;DHT22;8283;48.504;13.734;2022-12-18T12:53:22;4.70;64.40
16347;DHT22;8283;48.504;13.734;2022-12-18T12:56:11;4.70;64.10
16347;DHT22;8283;48.504;13.734;2022-12-18T12:59:04;4.70;64.20
16347;DHT22;8283;48.504;13.734;2022-12-18T13:05:09;4.60;63.80
16347;DHT22;8283;48.504;13.734;2022-12-18T13:08:10;4.60;63.90
16347;DHT22;8283;48.504;13.734;2022-12-18T13:10:56;4.60;63.80
16347;DHT22;8283;48.504;13.734;2022-12-18T13:14:00;4.60;64.00
16347;DHT22;8283;48.504;13.734;2022-12-18T13:16:44;4.50;63.90
16347;DHT22;8283;48.504;13.734;2022-12-18T13:19:31;4.50;63.90
16347;DHT22;8283;48.504;13.734;2022-12-18T13:22:43;4.50;63.80
16347;DHT22;8283;48.504;13.734;2022-12-18T13:28:15;4.40;63.70
16347;DHT22;8283;48.504;13.734;2022-12-18T13:31:01;4.40;63.70
16347;DHT22;8283;48.504;13.734;2022-12-18T13:33:46;4.40;63.70
16347;DHT22;8283;48.504;13.734;2022-12-18T13:36:34;4.30;64.40
16347;DHT22;8283;48.504;13.734;2022-12-18T13:44:50;4.30;63.70
16347;DHT22;8283;48.504;13.734;2022-12-18T13:47:36;4.20;63.60
16347;DHT22;8283;48.504;13.734;2022-12-18T13:50:25;4.20;63.50
16347;DHT22;8283;48.504;13.734;2022-12-18T13:53:21;4.20;63.50
16347;DHT22;8283;48.504;13.734;2022-12-18T13:56:07;4.10;63.30
16347;DHT22;8283;48.504;13.734;2022-12-18T14:02:15;4.00;63.20
16347;DHT22;8283;48.504;13.734;2022-12-18T14:05:00;4.00;63.30
16347;DHT22;8283;48.504;13.734;2022-12-18T14:07:44;3.90;63.40
16347;DHT22;8283;48.504;13.734;2022-12-18T14:10:29;3.90;63.40
16347;DHT22;8283;48.504;13.734;2022-12-18T14:13:36;3.80;63.40
16347;DHT22;8283;48.504;13.734;2022-12-18T14:16:23;3.80;63.20
16347;DHT22;8283;48.504;13.734;2022-12-18T14:19:15;3.70;63.30
16347;DHT22;8283;48.504;13.734;2022-12-18T14:22:00;3.70;63.40
16347;DHT22;8283;48.504;13.734;2022-12-18T14:24:45;3.60;63.50
16347;DHT22;8283;48.504;13.734;2022-12-18T14:27:29;3.50;63.50
16347;DHT22;8283;48.504;13.734;2022-12-18T14:33:10;3.40;63.50
16347;DHT22;8283;48.504;13.734;2022-12-18T14:36:04;3.40;63.70
16347;DHT22;8283;48.504;13.734;2022-12-18T14:38:56;3.40;63.70
16347;DHT22;8283;48.504;13.734;2022-12-18T14:41:41;3.30;63.70
16347;DHT22;8283;48.504;13.734;2022-12-18T14:44:26;3.30;63.70
16347;DHT22;8283;48.504;13.734;2022-12-18T14:47:15;3.30;63.70
16347;DHT22;8283;48.504;13.734;2022-12-18T14:50:01;3.30;63.60
16347;DHT22;8283;48.504;13.734;2022-12-18T14:52:45;3.20;63.60
16347;DHT22;8283;48.504;13.734;2022-12-18T14:55:29;3.20;63.60
16347;DHT22;8283;48.504;13.734;2022-12-18T14:58:15;3.20;63.60
16347;DHT22;8283;48.504;13.734;2022-12-18T15:01:01;3.20;63.60
16347;DHT22;8283;48.504;13.734;2022-12-18T15:03:46;3.20;63.50
16347;DHT22;8283;48.504;13.734;2022-12-18T15:06:36;3.10;63.40
16347;DHT22;8283;48.504;13.734;2022-12-18T15:09:23;3.10;63.40
16347;DHT22;8283;48.504;13.734;2022-12-18T15:18:19;3.00;63.50
16347;DHT22;8283;48.504;13.734;2022-12-18T15:21:10;2.90;63.50
16347;DHT22;8283;48.504;13.734;2022-12-18T15:23:55;2.90;63.50
16347;DHT22;8283;48.504;13.734;2022-12-18T15:26:41;2.90;63.60
16347;DHT22;8283;48.504;13.734;2022-12-18T15:29:27;2.80;63.60
16347;DHT22;8283;48.504;13.734;2022-12-18T15:32:19;2.80;63.60
16347;DHT22;8283;48.504;13.734;2022-12-18T15:37:55;2.70;63.80
16347;DHT22;8283;48.504;13.734;2022-12-18T15:40:39;2.60;63.90
16347;DHT22;8283;48.504;13.734;2022-12-18T15:43:24;2.60;63.90
16347;DHT22;8283;48.504;13.734;2022-12-18T15:46:20;2.50;64.00
16347;DHT22;8283;48.504;13.734;2022-12-18T15:49:05;2.50;64.10
16347;DHT22;8283;48.504;13.734;2022-12-18T15:51:54;2.50;64.20
16347;DHT22;8283;48.504;13.734;2022-12-18T15:54:40;2.50;64.30
16347;DHT22;8283;48.504;13.734;2022-12-18T15:57:43;2.40;64.30
16347;DHT22;8283;48.504;13.734;2022-12-18T16:00:28;2.40;64.30
16347;DHT22;8283;48.504;13.734;2022-12-18T16:03:12;2.30;64.40
16347;DHT22;8283;48.504;13.734;2022-12-18T16:05:56;2.30;64.50
16347;DHT22;8283;48.504;13.734;2022-12-18T16:08:42;2.30;64.60
16347;DHT22;8283;48.504;13.734;2022-12-18T16:11:28;2.30;64.70
16347;DHT22;8283;48.504;13.734;2022-12-18T16:17:11;2.20;64.70
16347;DHT22;8283;48.504;13.734;2022-12-18T16:19:56;2.20;64.80
16347;DHT22;8283;48.504;13.734;2022-12-18T16:22:42;2.20;64.90
16347;DHT22;8283;48.504;13.734;2022-12-18T16:25:29;2.20;64.90
16347;DHT22;8283;48.504;13.734;2022-12-18T16:28:13;2.20;64.90
16347;DHT22;8283;48.504;13.734;2022-12-18T16:30:57;2.20;65.00
16347;DHT22;8283;48.504;13.734;2022-12-18T16:33:41;2.20;65.00
16347;DHT22;8283;48.504;13.734;2022-12-18T16:36:26;2.20;65.10
16347;DHT22;8283;48.504;13.734;2022-12-18T16:39:10;2.20;65.10
16347;DHT22;8283;48.504;13.734;2022-12-18T16:41:54;2.20;65.20
16347;DHT22;8283;48.504;13.734;2022-12-18T16:44:38;2.20;65.30
16347;DHT22;8283;48.504;13.734;2022-12-18T16:47:23;2.20;65.30
16347;DHT22;8283;48.504;13.734;2022-12-18T16:50:08;2.20;65.30
16347;DHT22;8283;48.504;13.734;2022-12-18T16:52:52;2.30;65.30
16347;DHT22;8283;48.504;13.734;2022-12-18T16:55:37;2.30;65.30
16347;DHT22;8283;48.504;13.734;2022-12-18T16:58:22;2.30;65.30
16347;DHT22;8283;48.504;13.734;2022-12-18T17:01:12;2.30;65.30
16347;DHT22;8283;48.504;13.734;2022-12-18T17:03:59;2.30;65.40
16347;DHT22;8283;48.504;13.734;2022-12-18T17:06:45;2.30;65.30
16347;DHT22;8283;48.504;13.734;2022-12-18T17:09:34;2.30;65.30
16347;DHT22;8283;48.504;13.734;2022-12-18T17:12:19;2.30;66.10
16347;DHT22;8283;48.504;13.734;2022-12-18T17:15:04;2.30;65.40
16347;DHT22;8283;48.504;13.734;2022-12-18T17:17:48;2.30;65.40
16347;DHT22;8283;48.504;13.734;2022-12-18T17:20:33;2.30;65.50
16347;DHT22;8283;48.504;13.734;2022-12-18T17:23:17;2.30;65.50
16347;DHT22;8283;48.504;13.734;2022-12-18T17:26:02;2.30;65.50
16347;DHT22;8283;48.504;13.734;2022-12-18T17:28:48;2.30;65.50
16347;DHT22;8283;48.504;13.734;2022-12-18T17:31:34;2.30;65.50
16347;DHT22;8283;48.504;13.734;2022-12-18T17:34:18;2.30;65.50
16347;DHT22;8283;48.504;13.734;2022-12-18T17:37:04;2.30;65.50
16347;DHT22;8283;48.504;13.734;2022-12-18T17:39:49;2.30;65.60
16347;DHT22;8283;48.504;13.734;2022-12-18T17:42:33;2.30;65.60
16347;DHT22;8283;48.504;13.734;2022-12-18T17:45:18;2.30;65.60
16347;DHT22;8283;48.504;13.734;2022-12-18T17:48:04;2.30;65.60
16347;DHT22;8283;48.504;13.734;2022-12-18T17:50:48;2.40;65.70
16347;DHT22;8283;48.504;13.734;2022-12-18T17:53:33;2.40;65.70
16347;DHT22;8283;48.504;13.734;2022-12-18T17:56:19;2.40;65.60
16347;DHT22;8283;48.504;13.734;2022-12-18T17:59:05;2.30;65.50
16347;DHT22;8283;48.504;13.734;2022-12-18T18:01:50;2.30;65.60
16347;DHT22;8283;48.504;13.734;2022-12-18T18:04:34;2.30;65.50
16347;DHT22;8283;48.504;13.734;2022-12-18T18:07:19;2.30;65.60
16347;DHT22;8283;48.504;13.734;2022-12-18T18:10:03;2.30;65.60
16347;DHT22;8283;48.504;13.734;2022-12-18T18:12:48;2.30;65.60
16347;DHT22;8283;48.504;13.734;2022-12-18T18:15:56;2.30;65.60
16347;DHT22;8283;48.504;13.734;2022-12-18T18:18:40;2.30;65.70
16347;DHT22;8283;48.504;13.734;2022-12-18T18:21:26;2.30;65.70
16347;DHT22;8283;48.504;13.734;2022-12-18T18:24:11;2.30;65.60
16347;DHT22;8283;48.504;13.734;2022-12-18T18:26:56;2.30;65.60
16347;DHT22;8283;48.504;13.734;2022-12-18T18:29:43;2.30;65.60
16347;DHT22;8283;48.504;13.734;2022-12-18T18:32:28;2.30;65.60
16347;DHT22;8283;48.504;13.734;2022-12-18T18:35:13;2.30;65.60
16347;DHT22;8283;48.504;13.734;2022-12-18T18:37:57;2.30;65.70
16347;DHT22;8283;48.504;13.734;2022-12-18T18:40:41;2.30;65.60
16347;DHT22;8283;48.504;13.734;2022-12-18T18:43:26;2.30;65.60
16347;DHT22;8283;48.504;13.734;2022-12-18T18:46:13;2.30;65.60
16347;DHT22;8283;48.504;13.734;2022-12-18T18:48:58;2.30;65.70
16347;DHT22;8283;48.504;13.734;2022-12-18T18:51:42;2.30;65.70
16347;DHT22;8283;48.504;13.734;2022-12-18T18:54:26;2.30;65.70
16347;DHT22;8283;48.504;13.734;2022-12-18T18:57:11;2.30;65.70
16347;DHT22;8283;48.504;13.734;2022-12-18T18:59:55;2.30;65.70
16347;DHT22;8283;48.504;13.734;2022-12-18T19:02:40;2.20;65.60
16347;DHT22;8283;48.504;13.734;2022-12-18T19:05:30;2.20;65.60
16347;DHT22;8283;48.504;13.734;2022-12-18T19:08:14;2.20;65.70
16347;DHT22;8283;48.504;13.734;2022-12-18T19:11:00;2.20;65.70
16347;DHT22;8283;48.504;13.734;2022-12-18T19:13:45;2.20;65.70
16347;DHT22;8283;48.504;13.734;2022-12-18T19:16:29;2.20;65.70
16347;DHT22;8283;48.504;13.734;2022-12-18T19:19:15;2.20;65.70
16347;DHT22;8283;48.504;13.734;2022-12-18T19:22:03;2.20;65.70
16347;DHT22;8283;48.504;13.734;2022-12-18T19:24:49;2.20;65.70
16347;DHT22;8283;48.504;13.734;2022-12-18T19:27:33;2.20;65.70
16347;DHT22;8283;48.504;13.734;2022-12-18T19:30:22;2.20;65.70
16347;DHT22;8283;48.504;13.734;2022-12-18T19:33:06;2.20;65.70